Decoded Metar for KCHO (CHARLOTTESVILLE in VA, USA) (IATA:CHO) | Meteo·Mobile Aviation Weather
aviador You're here:

KCHO Decoded Metar

CHARLOTTESVILLE in VA, USA
Report Time2019-01-18 12:53:00
UTC Time2019-01-18 13:52:53
Flight Rules lifr LIFR
Wind210° at 04 kt
W.Decomp.*RWY 21: 4.0 kt HW 0.6 kt RCW
W.Rank210° ranks 3
Current wind is below 210° avg. (6.2)
Visibility805 m
Phenomena:Fog
Clouds:Overcast 002 Hf
Expected CloudBase > 800 ft AGL from Temp-Dew spread
Ceiling200 ft
Temp01°C (ISA -13)
Dew Point-1°C (87% RH)
AAT-2.6°C
QNH1018 hPa
Density Alt-1,014 ft
Elevation630 ft
Report Wrong Elevation
Raw Report
METAR KCHO 181253Z 21004KT 1/2SM FG OVC002 01/M01 A3006 RMK AO2 SLP182
T00061011=

Extra information for KCHO:More info

Metar Taf Metar & Taf Last 4 Metars F.Rules Stats Wind Profile Meteogram Temp Stats Airport Information Weather charts Add Link Nearby VenuesMetar ALERT Operation Metar Decoded Social comments

AIRNAV info for KCHO